Time;durP1;ratioP1;P1;durP2;ratioP2;P2;SDS_P1;SDS_P2;PMS_P1;PMS_P2;Temp;Humidity;BMP_temperature;BMP_pressure;BME280_temperature;BME280_humidity;BME280_pressure;Samples;Min_cycle;Max_cycle;Signal;HPM_P1;HPM_P2
2023/02/20 00:00:06;;;;;;;4.55;4.25;;;;;;;3.71;100.00;102229.22;6116008;23;20510;-75
2023/02/20 00:02:33;;;;;;;4.60;4.30;;;;;;;2.96;100.00;102108.00;6127697;23;20088;-75
2023/02/20 00:04:59;;;;;;;5.22;4.90;;;;;;;3.63;100.00;102225.75;6139289;23;20017;-74
2023/02/20 00:07:25;;;;;;;4.45;4.25;;;;;;;2.78;100.00;102073.41;6094047;23;20033;-75
2023/02/20 00:09:52;;;;;;;5.32;4.93;;;;;;;3.65;100.00;102222.31;6103823;23;20033;-74
2023/02/20 00:12:18;;;;;;;4.97;4.68;;;;;;;3.37;100.00;102169.50;6135180;23;20025;-74
2023/02/20 00:14:44;;;;;;;4.55;4.15;;;;;;;3.03;100.00;102122.75;6110499;23;20020;-74
2023/02/20 00:17:11;;;;;;;4.50;4.20;;;;;;;3.23;100.00;102159.09;6087259;23;20083;-75
2023/02/20 00:19:37;;;;;;;4.43;4.10;;;;;;;3.03;100.00;102138.28;6136361;23;20041;-75
2023/02/20 00:22:04;;;;;;;3.78;3.58;;;;;;;3.09;100.00;102140.03;6111528;23;20040;-75
2023/02/20 00:24:30;;;;;;;4.85;4.55;;;;;;;2.53;100.00;102056.94;6111315;23;20098;-75
2023/02/20 00:26:56;;;;;;;4.60;4.22;;;;;;;2.66;100.00;102052.63;6134352;23;20096;-75
2023/02/20 00:29:23;;;;;;;5.18;4.78;;;;;;;2.78;100.00;102082.91;6131434;23;20017;-76
2023/02/20 00:31:54;;;;;;;5.00;4.60;;;;;;;3.07;100.00;102129.66;6128877;23;20834;-75
2023/02/20 00:34:22;;;;;;;7.55;6.97;;;;;;;2.45;100.00;102031.88;6138072;23;20033;-74
2023/02/20 00:36:48;;;;;;;5.13;4.72;;;;;;;2.65;100.00;102068.22;6120423;23;20059;-75
2023/02/20 00:39:15;;;;;;;5.25;4.90;;;;;;;3.26;100.00;102142.66;6109359;23;20028;-75
2023/02/20 00:41:41;;;;;;;5.32;4.82;;;;;;;3.08;100.00;102115.81;6113402;23;20441;-75
2023/02/20 00:44:08;;;;;;;7.28;5.20;;;;;;;2.75;100.00;102055.25;6127818;23;20082;-75
2023/02/20 00:46:34;;;;;;;6.82;4.50;;;;;;;2.73;100.00;102040.56;6114910;23;20025;-75
2023/02/20 00:49:01;;;;;;;5.03;4.53;;;;;;;3.32;100.00;102146.13;6112499;23;20025;-75
2023/02/20 00:51:27;;;;;;;5.47;5.07;;;;;;;2.69;100.00;102036.25;6120001;23;20046;-75
2023/02/20 00:53:54;;;;;;;5.78;5.38;;;;;;;3.52;100.00;102166.88;6128850;23;20012;-75
2023/02/20 00:56:20;;;;;;;5.28;4.65;;;;;;;3.42;100.00;102134.00;6133685;23;20021;-73
2023/02/20 00:58:47;;;;;;;4.18;3.92;;;;;;;2.97;100.00;102063.94;6134429;23;20112;-74
2023/02/20 01:01:16;;;;;;;4.57;4.28;;;;;;;2.22;100.00;101929.03;6095180;23;20039;-72
2023/02/20 01:03:43;;;;;;;5.22;4.72;;;;;;;3.71;100.00;102154.81;6111637;23;20010;-73
2023/02/20 01:06:10;;;;;;;5.35;4.95;;;;;;;3.74;100.00;102146.13;6109080;23;20025;-72
2023/02/20 01:08:36;;;;;;;5.45;5.00;;;;;;;3.77;100.00;102130.56;6105327;23;20048;-72
2023/02/20 01:11:03;;;;;;;5.22;4.88;;;;;;;3.29;100.00;102063.09;6134641;23;20013;-72
2023/02/20 01:13:30;;;;;;;6.22;5.65;;;;;;;3.66;100.00;102103.75;6128613;23;20681;-73
2023/02/20 01:15:59;;;;;;;6.13;5.53;;;;;;;3.50;100.00;102085.56;6107180;23;20216;-73
2023/02/20 01:18:25;;;;;;;5.63;5.22;;;;;;;3.15;100.00;101994.78;6138144;23;20686;-73
2023/02/20 01:20:52;;;;;;;5.38;4.97;;;;;;;3.65;100.00;102074.31;6114771;23;20029;-73
2023/02/20 01:23:18;;;;;;;6.25;5.82;;;;;;;3.73;100.00;102074.31;6130405;23;20084;-73
2023/02/20 01:25:45;;;;;;;7.15;5.65;;;;;;;3.91;100.00;102105.44;6129797;23;20041;-73
2023/02/20 01:28:11;;;;;;;5.00;4.70;;;;;;;3.58;100.00;102060.47;6076753;23;20151;-73
2023/02/20 01:30:38;;;;;;;4.97;4.68;;;;;;;2.86;100.00;101925.63;6134443;23;20085;-72
2023/02/20 01:33:04;;;;;;;4.50;4.30;;;;;;;3.93;100.00;102101.09;6108197;23;20045;-72
2023/02/20 01:35:32;;;;;;;5.13;4.72;;;;;;;3.97;100.00;102100.22;6090954;23;20062;-71
2023/02/20 01:37:59;;;;;;;4.88;4.57;;;;;;;1.53;100.00;101676.13;6079135;23;20100;-73
2023/02/20 01:40:26;;;;;;;4.78;4.47;;;;;;;3.97;100.00;102087.25;6101505;23;20056;-72
2023/02/20 01:42:53;;;;;;;6.45;5.53;;;;;;;3.95;100.00;102081.19;6137260;23;20052;-72
2023/02/20 01:45:22;;;;;;;5.55;5.05;;;;;;;4.00;100.00;102088.97;6130808;23;20436;-73
2023/02/20 01:47:53;;;;;;;6.15;5.35;;;;;;;3.99;100.00;102082.06;6078437;23;20188;-74
2023/02/20 01:50:42;;;;;;;5.90;5.40;;;;;;;3.28;100.00;101974.88;6129301;23;20032;-72
2023/02/20 01:53:13;;;;;;;5.60;5.20;;;;;;;3.95;100.00;102094.19;6127854;23;20037;-73
2023/02/20 01:55:47;;;;;;;5.18;4.72;;;;;;;3.95;100.00;102093.31;6100486;23;20052;-72
2023/02/20 01:58:19;;;;;;;5.80;5.32;;;;;;;3.96;100.00;102089.84;6131359;23;20447;-73
2023/02/20 02:00:45;;;;;;;5.38;4.72;;;;;;;3.44;100.00;102005.13;6110511;23;20107;-73
2023/02/20 02:03:19;;;;;;;5.97;5.20;;;;;;;3.95;100.00;102088.97;6128011;23;20073;-73
2023/02/20 02:05:51;;;;;;;4.75;4.43;;;;;;;3.80;100.00;102052.66;6133712;23;20013;-72
2023/02/20 02:08:21;;;;;;;5.07;4.63;;;;;;;3.76;100.00;102041.41;6130893;23;20484;-73
2023/02/20 02:11:01;;;;;;;4.35;4.05;;;;;;;4.05;100.00;102073.34;6081292;23;20025;-73
2023/02/20 02:13:29;;;;;;;4.90;4.60;;;;;;;3.82;100.00;102040.53;6132959;23;20033;-72
2023/02/20 02:16:35;;;;;;;5.38;4.47;;;;;;;4.06;100.00;102070.75;6110955;23;20435;-73
2023/02/20 02:19:13;;;;;;;6.07;5.60;;;;;;;3.99;100.00;102059.53;6130019;23;21045;-73
2023/02/20 02:22:04;;;;;;;4.90;4.55;;;;;;;3.74;100.00;102035.34;6126176;23;20140;-72
2023/02/20 02:24:54;;;;;;;4.93;4.53;;;;;;;3.87;100.00;102056.97;6105336;23;20082;-72
2023/02/20 02:27:55;;;;;;;4.80;4.35;;;;;;;3.58;100.00;102031.06;6131189;23;20192;-72
2023/02/20 02:30:42;;;;;;;5.70;5.20;;;;;;;2.62;100.00;101876.41;6121726;23;20084;-72
2023/02/20 02:33:27;;;;;;;5.60;4.78;;;;;;;3.27;100.00;101991.28;6073959;23;20044;-73
2023/02/20 02:36:12;;;;;;;6.32;5.72;;;;;;;3.57;100.00;102055.31;6087045;23;20021;-72
2023/02/20 02:39:18;;;;;;;4.82;4.20;;;;;;;3.58;100.00;102042.28;6130078;23;20084;-73
2023/02/20 02:41:52;;;;;;;5.78;5.28;;;;;;;3.62;100.00;102031.91;6056016;23;20035;-73
2023/02/20 02:44:28;;;;;;;6.78;6.18;;;;;;;3.19;100.00;101970.56;6082028;23;20025;-73
2023/02/20 02:47:03;;;;;;;6.78;6.07;;;;;;;3.62;100.00;102029.31;6112736;23;20029;-73
2023/02/20 02:49:29;;;;;;;5.85;5.18;;;;;;;3.66;100.00;102025.84;6110742;23;20026;-72
2023/02/20 02:51:57;;;;;;;6.57;6.07;;;;;;;3.72;100.00;102033.63;6106115;23;20025;-73
2023/02/20 02:54:26;;;;;;;6.15;5.72;;;;;;;3.70;100.00;102030.16;6105426;23;20518;-73
2023/02/20 02:57:23;;;;;;;4.97;4.60;;;;;;;3.71;100.00;102019.78;6131161;23;20611;-70
2023/02/20 02:59:56;;;;;;;5.35;4.95;;;;;;;3.52;100.00;101995.59;6131553;23;20020;-70
2023/02/20 03:02:26;;;;;;;5.70;5.20;;;;;;;3.26;100.00;101951.53;6107214;23;20090;-71
2023/02/20 03:04:54;;;;;;;5.57;5.22;;;;;;;3.29;100.00;101927.34;6102056;23;20076;-74
2023/02/20 03:07:22;;;;;;;4.68;4.28;;;;;;;3.62;100.00;101996.44;6127221;23;20014;-71
2023/02/20 03:09:59;;;;;;;7.35;5.18;;;;;;;3.73;100.00;102015.47;6133475;23;20076;-71
2023/02/20 03:12:26;;;;;;;5.55;5.07;;;;;;;3.68;100.00;102022.38;6085160;23;20030;-72
2023/02/20 03:17:58;;;;;;;5.55;5.15;;;;;;;3.25;100.00;101956.72;6113570;23;21476;-71
2023/02/20 03:20:28;;;;;;;4.72;4.35;;;;;;;3.26;100.00;101964.50;6131190;23;20081;-72
2023/02/20 03:23:00;;;;;;;5.55;5.10;;;;;;;2.74;100.00;101871.22;6132785;23;20040;-72
2023/02/20 03:25:52;;;;;;;7.22;5.93;;;;;;;3.68;100.00;102026.72;6108281;23;20074;-72
2023/02/20 03:28:34;;;;;;;7.43;6.25;;;;;;;3.68;100.00;102017.19;6097914;23;20030;-71
2023/02/20 03:31:08;;;;;;;5.18;4.72;;;;;;;3.69;100.00;102023.25;6130386;23;20592;-72
2023/02/20 03:45:24;;;;;;;8.45;4.45;;;;;;;2.19;100.00;101740.00;6135270;23;20037;-73
2023/02/20 03:47:58;;;;;;;5.22;4.90;;;;;;;2.83;100.00;101867.72;6118793;23;20044;-72
2023/02/20 03:53:10;;;;;;;5.28;4.88;;;;;;;2.55;100.00;101826.31;6115371;23;20631;-72
2023/02/20 03:55:36;;;;;;;4.68;4.38;;;;;;;3.49;100.00;101995.63;6106113;23;20809;-72
2023/02/20 03:58:07;;;;;;;4.38;4.13;;;;;;;2.63;100.00;101863.44;6084882;23;20033;-73
2023/02/20 04:00:40;;;;;;;4.57;4.07;;;;;;;3.18;100.00;101980.06;6134099;23;20092;-72
2023/02/20 04:03:13;;;;;;;4.97;4.57;;;;;;;2.69;100.00;101886.78;6109206;23;20926;-72
2023/02/20 04:05:43;;;;;;;4.15;3.95;;;;;;;1.94;100.00;101763.28;6132900;23;20469;-72
2023/02/20 04:08:15;;;;;;;4.70;4.40;;;;;;;3.02;100.00;101955.00;6111276;23;20015;-73
2023/02/20 04:10:58;;;;;;;4.35;4.15;;;;;;;2.96;100.00;101962.78;6107051;23;20353;-72
2023/02/20 04:13:29;;;;;;;4.60;4.30;;;;;;;2.92;100.00;101963.66;6135469;23;20118;-72
2023/02/20 04:15:59;;;;;;;4.38;4.07;;;;;;;2.72;100.00;101961.91;6127665;23;20318;-72
2023/02/20 04:18:27;;;;;;;4.93;4.53;;;;;;;2.84;100.00;101973.19;6089586;23;20029;-72
2023/02/20 04:20:55;;;;;;;4.93;3.80;;;;;;;2.97;100.00;101996.53;6121702;23;20744;-72
2023/02/20 04:23:24;;;;;;;4.85;4.55;;;;;;;2.51;100.00;101925.66;6107456;23;20025;-72
2023/02/20 04:26:08;;;;;;;5.10;4.70;;;;;;;2.96;100.00;101999.97;6111405;23;20101;-72
2023/02/20 04:28:35;;;;;;;4.43;4.07;;;;;;;2.96;100.00;101986.13;6137492;23;20052;-73
2023/02/20 04:31:01;;;;;;;4.78;4.40;;;;;;;2.77;100.00;101980.94;6131813;23;20038;-72
2023/02/20 04:33:28;;;;;;;4.40;4.00;;;;;;;1.88;100.00;101796.06;6105153;23;20031;-72
2023/02/20 04:35:57;;;;;;;4.22;4.00;;;;;;;3.07;100.00;101987.00;6098003;23;20029;-72
2023/02/20 04:38:24;;;;;;;5.18;4.88;;;;;;;2.79;100.00;101948.13;6106432;23;20377;-72
2023/02/20 04:40:51;;;;;;;5.25;4.57;;;;;;;2.39;100.00;101878.13;6131489;23;20448;-72
2023/02/20 04:43:17;;;;;;;4.85;4.53;;;;;;;1.95;100.00;101795.22;6132730;23;20362;-72
2023/02/20 04:45:44;;;;;;;5.22;4.93;;;;;;;1.75;100.00;101775.34;6083906;23;20029;-71
2023/02/20 04:48:10;;;;;;;4.05;3.78;;;;;;;3.03;100.00;101985.28;6112284;23;20029;-72
2023/02/20 04:50:36;;;;;;;5.07;4.78;;;;;;;1.77;100.00;101771.03;6139620;23;20025;-72
2023/02/20 04:53:03;;;;;;;4.68;4.38;;;;;;;2.63;100.00;101922.19;6126755;23;20028;-71
2023/02/20 04:55:29;;;;;;;4.75;4.45;;;;;;;2.62;100.00;101926.50;6110912;23;20076;-72
2023/02/20 04:57:57;;;;;;;5.38;5.00;;;;;;;1.32;100.00;101722.63;6129316;23;20091;-72
2023/02/20 05:00:25;;;;;;;6.22;3.63;;;;;;;2.87;100.00;101983.56;6130289;23;20099;-71
2023/02/20 05:02:51;;;;;;;3.70;3.45;;;;;;;2.62;100.00;101943.78;6128814;23;20498;-72
2023/02/20 05:05:24;;;;;;;3.83;3.63;;;;;;;1.61;100.00;101799.47;6130463;23;20030;-72
2023/02/20 05:08:04;;;;;;;4.97;4.57;;;;;;;2.66;100.00;101961.91;6100993;23;20268;-72
2023/02/20 05:10:32;;;;;;;4.25;3.95;;;;;;;2.46;100.00;101919.59;6114909;23;20025;-72
2023/02/20 05:12:59;;;;;;;4.18;3.88;;;;;;;2.42;100.00;101948.94;6107469;23;20032;-72
2023/02/20 05:15:27;;;;;;;6.32;5.00;;;;;;;2.72;100.00;101989.56;6105085;23;20078;-72
2023/02/20 05:17:53;;;;;;;4.07;3.88;;;;;;;2.52;100.00;101946.34;6107935;23;20032;-71
2023/02/20 05:20:20;;;;;;;4.30;4.10;;;;;;;2.63;100.00;101961.94;6077347;23;20569;-72
2023/02/20 05:22:47;;;;;;;4.38;4.18;;;;;;;2.82;100.00;101974.91;6089946;23;20140;-72
2023/02/20 05:25:14;;;;;;;5.53;3.67;;;;;;;2.88;100.00;101974.91;6103271;23;20081;-71
2023/02/20 05:27:41;;;;;;;4.30;4.00;;;;;;;2.52;100.00;101914.41;6087183;23;20027;-72
2023/02/20 05:30:09;;;;;;;4.30;4.00;;;;;;;2.92;100.00;101967.13;6128109;23;20029;-71
2023/02/20 05:32:36;;;;;;;3.70;3.50;;;;;;;2.90;100.00;101992.19;6127593;23;20028;-72
2023/02/20 05:35:03;;;;;;;3.67;3.47;;;;;;;1.62;100.00;101757.19;6132821;23;20746;-72
2023/02/20 05:37:30;;;;;;;4.28;3.97;;;;;;;2.47;100.00;101900.59;6130964;23;20114;-72
2023/02/20 05:39:59;;;;;;;3.90;3.70;;;;;;;2.67;100.00;101923.94;6133661;23;20033;-72
2023/02/20 05:42:25;;;;;;;3.60;3.40;;;;;;;2.67;100.00;101918.75;6136854;23;20090;-72
2023/02/20 05:44:51;;;;;;;3.90;3.60;;;;;;;2.80;100.00;101952.41;6131406;23;20016;-72
2023/02/20 05:47:18;;;;;;;4.65;4.40;;;;;;;2.22;100.00;101842.72;6128373;23;20025;-72
2023/02/20 05:49:45;;;;;;;3.67;3.35;;;;;;;2.12;100.00;101824.56;6104722;23;20616;-71
2023/02/20 05:52:11;;;;;;;4.35;4.05;;;;;;;2.91;100.00;101959.34;6086894;23;20025;-72
2023/02/20 05:54:40;;;;;;;3.20;3.10;;;;;;;2.34;100.00;101869.47;6104962;23;20033;-72
2023/02/20 05:57:07;;;;;;;4.80;3.95;;;;;;;2.71;100.00;101923.91;6124432;23;20211;-73
2023/02/20 05:59:33;;;;;;;3.30;3.20;;;;;;;2.83;100.00;101956.75;6102038;23;20026;-72
2023/02/20 06:02:00;;;;;;;4.55;4.25;;;;;;;2.92;100.00;101956.75;6127952;23;20253;-73
2023/02/20 06:04:28;;;;;;;3.72;3.50;;;;;;;2.93;100.00;101942.94;6078907;23;20558;-72
2023/02/20 06:06:55;;;;;;;3.90;3.55;;;;;;;2.47;100.00;101859.13;6119702;23;20029;-72
2023/02/20 06:09:21;;;;;;;3.65;3.47;;;;;;;1.74;100.00;101728.75;6127929;23;20424;-72
2023/02/20 06:11:50;;;;;;;3.25;3.15;;;;;;;3.03;100.00;101946.38;6127524;23;20033;-72
2023/02/20 06:14:18;;;;;;;3.40;3.30;;;;;;;2.94;100.00;101891.94;6130730;23;20032;-71
2023/02/20 06:16:45;;;;;;;3.70;3.50;;;;;;;3.34;100.00;101949.78;6129800;23;20029;-73
2023/02/20 06:19:21;;;;;;;3.65;3.50;;;;;;;3.32;100.00;101948.06;6108353;23;20284;-72
2023/02/20 06:21:49;;;;;;;3.85;3.55;;;;;;;2.51;100.00;101807.31;6133864;23;20025;-75
2023/02/20 06:24:16;;;;;;;3.85;3.65;;;;;;;3.01;100.00;101888.47;6108780;23;20150;-73
2023/02/20 06:26:43;;;;;;;3.70;3.50;;;;;;;3.18;100.00;101916.97;6097544;23;20089;-71
2023/02/20 06:29:10;;;;;;;3.22;3.13;;;;;;;3.45;100.00;101956.66;6107049;23;20287;-72
2023/02/20 06:31:37;;;;;;;3.67;3.47;;;;;;;3.62;100.00;101959.25;6128216;23;20032;-73
2023/02/20 06:34:05;;;;;;;4.03;3.75;;;;;;;3.12;100.00;101867.69;6108283;23;20083;-71
2023/02/20 06:36:35;;;;;;;4.05;3.85;;;;;;;3.64;100.00;101958.34;6133524;23;20035;-72
2023/02/20 06:39:02;;;;;;;3.72;3.58;;;;;;;3.73;100.00;101960.94;6105804;23;20063;-72
2023/02/20 06:41:28;;;;;;;3.50;3.30;;;;;;;3.08;100.00;101842.63;6127724;23;20397;-72
2023/02/20 06:43:55;;;;;;;4.28;4.07;;;;;;;2.53;100.00;101760.69;6142100;23;19997;-71
2023/02/20 06:46:22;;;;;;;4.38;3.97;;;;;;;3.48;100.00;101931.59;6144483;23;20189;-70
2023/02/20 06:48:51;;;;;;;3.20;3.10;;;;;;;3.63;100.00;101972.22;6098668;23;20072;-71
2023/02/20 06:51:19;;;;;;;3.92;3.55;;;;;;;3.03;100.00;101885.84;6106556;23;20280;-71
2023/02/20 06:53:46;;;;;;;3.83;3.63;;;;;;;3.40;100.00;101944.56;6121097;23;20059;-71
2023/02/20 06:56:19;;;;;;;3.85;3.65;;;;;;;3.75;100.00;101990.34;6147947;23;20032;-71
2023/02/20 06:58:46;;;;;;;3.65;3.45;;;;;;;3.74;100.00;101964.38;6131040;23;20032;-72
2023/02/20 07:01:14;;;;;;;5.15;4.75;;;;;;;4.08;100.00;102030.06;6139076;23;20316;-71
2023/02/20 07:03:40;;;;;;;5.78;5.18;;;;;;;4.28;100.00;101985.78;6115380;23;20036;-72
2023/02/20 07:06:07;;;;;;;4.50;4.20;;;;;;;4.45;100.00;101990.91;6138960;23;20162;-73
2023/02/20 07:08:34;;;;;;;4.25;4.00;;;;;;;4.61;100.00;101983.88;6119986;23;20693;-72
2023/02/20 07:11:00;;;;;;;5.45;4.95;;;;;;;4.47;100.00;101967.47;6140808;23;20092;-71
2023/02/20 07:13:26;;;;;;;6.25;5.75;;;;;;;4.64;100.00;101993.38;6116690;23;20040;-71
2023/02/20 07:15:53;;;;;;;5.35;4.85;;;;;;;4.67;100.00;101965.63;6088944;23;20024;-72
2023/02/20 07:18:22;;;;;;;5.10;4.68;;;;;;;4.70;100.00;101964.75;6118280;23;20095;-72
2023/02/20 07:20:53;;;;;;;5.40;4.93;;;;;;;4.68;100.00;101961.28;6144934;23;20021;-72
2023/02/20 07:23:21;;;;;;;6.88;5.32;;;;;;;4.15;100.00;101883.69;6114819;23;20038;-72
2023/02/20 07:25:49;;;;;;;6.45;5.90;;;;;;;4.87;100.00;101996.69;6113056;23;20029;-71
2023/02/20 07:28:17;;;;;;;6.75;6.20;;;;;;;4.89;100.00;101992.34;6099169;23;20040;-72
2023/02/20 07:30:45;;;;;;;5.25;4.85;;;;;;;4.84;100.00;101985.44;6136966;23;20102;-71
2023/02/20 07:33:14;;;;;;;6.18;5.53;;;;;;;4.60;100.00;101948.34;6135424;23;20017;-71
2023/02/20 07:35:41;;;;;;;7.63;4.65;;;;;;;4.56;100.00;101963.09;6110939;23;20048;-70
2023/02/20 07:38:07;;;;;;;6.18;5.60;;;;;;;4.43;100.00;101943.28;6111640;23;20469;-70
2023/02/20 07:40:34;;;;;;;5.35;4.88;;;;;;;3.66;100.00;101774.91;6138406;23;20082;-70
2023/02/20 07:43:00;;;;;;;4.90;4.60;;;;;;;4.80;100.00;101971.59;6139706;23;20116;-71
2023/02/20 07:45:27;;;;;;;6.50;6.07;;;;;;;4.72;100.00;101957.78;6118732;23;20546;-71
2023/02/20 07:47:54;;;;;;;5.18;4.63;;;;;;;4.15;100.00;101862.00;6145823;23;20028;-71
2023/02/20 07:50:20;;;;;;;5.28;4.88;;;;;;;4.56;100.00;101911.09;6112181;23;20020;-71
2023/02/20 07:52:47;;;;;;;6.70;5.60;;;;;;;4.63;100.00;101924.94;6135359;23;20341;-71
2023/02/20 07:55:17;;;;;;;7.32;5.75;;;;;;;5.09;100.00;101989.59;6132992;23;20299;-71
2023/02/20 07:57:49;;;;;;;5.78;5.45;;;;;;;5.20;100.00;101979.06;6135061;23;20035;-70
2023/02/20 08:00:17;;;;;;;6.35;4.65;;;;;;;5.19;100.00;101980.81;6131034;23;20017;-72
2023/02/20 08:02:44;;;;;;;4.65;4.35;;;;;;;4.99;100.00;101928.97;6109349;23;20178;-71
2023/02/20 08:05:11;;;;;;;5.47;5.15;;;;;;;5.29;100.00;101976.38;6135836;23;20035;-73
2023/02/20 08:07:37;;;;;;;6.03;5.50;;;;;;;4.69;100.00;101883.28;6104704;23;20021;-71
2023/02/20 08:10:05;;;;;;;4.95;4.60;;;;;;;5.36;100.00;101988.44;6114697;23;20036;-72
2023/02/20 08:12:31;;;;;;;5.47;5.05;;;;;;;4.91;100.00;101927.28;6106634;23;20090;-72
2023/02/20 08:14:57;;;;;;;8.23;4.90;;;;;;;3.99;100.00;101755.63;6133726;23;20033;-71
2023/02/20 08:17:24;;;;;;;5.63;5.15;;;;;;;5.44;100.00;101977.09;6136019;23;20957;-72
2023/02/20 08:20:03;;;;;;;4.75;4.45;;;;;;;5.09;100.00;101915.84;6110899;23;20420;-72
2023/02/20 08:22:29;;;;;;;4.72;4.43;;;;;;;5.29;100.00;101954.69;6134627;23;20017;-72
2023/02/20 08:25:07;;;;;;;5.63;5.22;;;;;;;4.19;100.00;101768.47;6129952;23;20206;-71
2023/02/20 08:27:37;;;;;;;6.18;5.72;;;;;;;5.42;100.00;101987.53;6135830;23;20021;-71
2023/02/20 08:30:22;;;;;;;10.73;6.57;;;;;;;5.34;100.00;101984.16;6128903;23;20045;-70
2023/02/20 08:32:50;;;;;;;6.25;5.70;;;;;;;5.53;100.00;101985.69;6135149;23;20161;-72
2023/02/20 08:35:18;;;;;;;5.90;5.35;;;;;;;5.21;100.00;101949.53;6128845;23;21573;-71
2023/02/20 08:37:45;;;;;;;11.30;6.68;;;;;;;5.44;100.00;101980.56;6131980;23;20028;-70
2023/02/20 08:40:12;;;;;;;5.90;5.47;;;;;;;5.16;100.00;101933.13;6093298;23;20035;-71
2023/02/20 08:42:39;;;;;;;5.82;4.35;;;;;;;5.16;100.00;101938.34;6128784;23;20270;-73
2023/02/20 08:45:07;;;;;;;5.28;4.88;;;;;;;5.46;100.00;101970.16;6138284;23;20029;-71
2023/02/20 08:47:34;;;;;;;5.72;5.32;;;;;;;5.58;100.00;101989.09;6116051;23;20258;-72
2023/02/20 08:50:00;;;;;;;5.75;5.32;;;;;;;5.56;100.00;101963.97;6136722;23;20231;-72
2023/02/20 08:52:27;;;;;;;7.18;4.78;;;;;;;5.32;100.00;101928.63;6128250;23;20048;-73
2023/02/20 08:54:53;;;;;;;4.57;4.28;;;;;;;5.36;100.00;101917.31;6138137;23;20204;-70
2023/02/20 08:57:20;;;;;;;7.90;5.20;;;;;;;5.50;100.00;101935.38;6111845;23;20033;-70
2023/02/20 08:59:46;;;;;;;6.53;5.05;;;;;;;4.47;100.00;101743.94;6132364;23;20067;-71
2023/02/20 09:02:18;;;;;;;9.13;6.57;;;;;;;5.84;100.00;101968.84;6125541;23;20029;-71
2023/02/20 09:04:45;;;;;;;9.73;6.55;;;;;;;5.87;100.00;101972.25;6097525;23;20014;-71
2023/02/20 09:07:14;;;;;;;8.02;6.43;;;;;;;5.80;100.00;101976.69;6130942;23;21408;-72
2023/02/20 09:09:41;;;;;;;10.73;5.07;;;;;;;5.81;100.00;101964.53;6107098;23;20014;-71
2023/02/20 09:12:10;;;;;;;6.28;5.78;;;;;;;5.72;100.00;101936.00;6109514;23;20033;-70
2023/02/20 09:14:37;;;;;;;7.53;5.65;;;;;;;5.72;100.00;101910.81;6130717;23;20031;-72
2023/02/20 09:17:04;;;;;;;6.95;6.10;;;;;;;5.87;100.00;101927.97;6107880;23;20087;-71
2023/02/20 09:19:31;;;;;;;5.82;5.45;;;;;;;5.97;100.00;101955.69;6129085;23;20029;-71
2023/02/20 09:21:58;;;;;;;5.47;4.97;;;;;;;5.82;100.00;101932.41;6097472;23;20307;-74
2023/02/20 09:24:27;;;;;;;5.70;5.20;;;;;;;6.07;100.00;101919.06;6108734;23;20458;-73
2023/02/20 09:26:53;;;;;;;6.32;5.72;;;;;;;6.29;100.00;101963.94;6132694;23;20040;-72
2023/02/20 09:29:22;;;;;;;6.75;6.13;;;;;;;6.46;100.00;101958.50;6129443;23;20072;-70
2023/02/20 09:31:49;;;;;;;6.93;6.32;;;;;;;6.10;100.00;101901.66;6125593;23;20496;-72
2023/02/20 09:34:15;;;;;;;7.05;5.35;;;;;;;5.66;100.00;101855.34;6109351;23;20018;-71
2023/02/20 09:36:42;;;;;;;4.82;4.53;;;;;;;6.03;100.00;101896.53;6129974;23;20169;-70
2023/02/20 09:39:08;;;;;;;7.15;6.25;;;;;;;6.49;100.00;101974.09;6105911;23;20024;-72
2023/02/20 09:42:00;;;;;;;8.93;6.35;;;;;;;6.63;100.00;101974.75;6116242;23;20281;-70
2023/02/20 09:44:45;;;;;;;5.38;4.95;;;;;;;6.52;100.00;101979.28;6128228;23;20037;-69
2023/02/20 09:47:29;;;;;;;6.90;6.03;;;;;;;6.61;100.00;101979.13;6111586;23;20021;-72
2023/02/20 09:50:01;;;;;;;6.32;5.60;;;;;;;6.49;100.00;101981.91;6108012;23;20021;-70
2023/02/20 09:52:29;;;;;;;6.38;5.68;;;;;;;6.78;100.00;101971.91;6101767;23;20044;-72
2023/02/20 09:55:10;;;;;;;5.35;4.85;;;;;;;6.18;100.00;101891.97;6105796;23;20025;-73
2023/02/20 09:57:38;;;;;;;6.85;5.05;;;;;;;6.71;100.00;101987.66;6110482;23;20021;-71
2023/02/20 10:00:12;;;;;;;5.80;5.30;;;;;;;6.72;100.00;101974.59;6100496;23;20180;-70
2023/02/20 10:02:52;;;;;;;7.13;5.65;;;;;;;6.79;100.00;101975.38;6101791;23;20456;-71
2023/02/20 10:05:26;;;;;;;6.20;5.60;;;;;;;6.49;100.00;101948.00;6129209;23;20879;-72
2023/02/20 10:07:53;;;;;;;7.80;4.90;;;;;;;6.02;100.00;101851.38;6134697;23;20025;-72
2023/02/20 10:10:23;;;;;;;17.13;6.50;;;;;;;6.83;100.00;101971.81;6106411;23;20167;-71
2023/02/20 10:13:12;;;;;;;9.60;5.55;;;;;;;6.63;100.00;101976.50;6106090;23;20044;-70
2023/02/20 10:15:51;;;;;;;7.43;5.95;;;;;;;6.77;100.00;101961.47;6124050;23;20008;-72
2023/02/20 10:18:48;;;;;;;5.43;4.93;;;;;;;6.88;100.00;101956.97;6102704;23;20274;-70
2023/02/20 10:21:38;;;;;;;7.68;6.18;;;;;;;6.72;100.00;101903.31;6103823;23;20029;-71
2023/02/20 10:24:23;;;;;;;5.00;4.70;;;;;;;6.93;100.00;101908.16;6106838;23;20001;-70
2023/02/20 10:26:56;;;;;;;10.00;5.50;;;;;;;7.10;100.00;101944.41;6124742;23;20514;-72
2023/02/20 10:29:27;;;;;;;19.67;5.55;;;;;;;6.63;100.00;101849.53;6103137;23;20022;-72
2023/02/20 10:32:03;;;;;;;6.57;5.93;;;;;;;7.40;100.00;101944.75;6105826;23;20037;-72
2023/02/20 10:34:38;;;;;;;5.47;4.97;;;;;;;7.42;100.00;101953.41;6126798;23;20081;-71
2023/02/20 10:37:16;;;;;;;10.48;6.00;;;;;;;6.94;100.00;101872.50;6104042;23;20341;-72
2023/02/20 10:39:52;;;;;;;7.95;6.18;;;;;;;7.19;100.00;101910.28;6125452;23;20010;-70
2023/02/20 10:42:28;;;;;;;6.35;5.85;;;;;;;7.19;100.00;101894.63;6136192;23;20533;-71
2023/02/20 10:45:02;;;;;;;5.22;4.93;;;;;;;6.50;100.00;101804.56;6124670;23;20024;-71
2023/02/20 10:47:37;;;;;;;15.73;6.25;;;;;;;6.64;100.00;101847.81;6082333;23;20088;-72
2023/02/20 10:50:08;;;;;;;7.18;6.57;;;;;;;7.07;100.00;101905.28;6110550;23;20010;-72
2023/02/20 10:52:41;;;;;;;6.10;5.55;;;;;;;7.41;100.00;101950.81;6101771;23;20053;-71
2023/02/20 10:55:19;;;;;;;6.28;5.72;;;;;;;6.96;100.00;101899.44;6134182;23;20067;-71
2023/02/20 10:58:04;;;;;;;6.28;5.63;;;;;;;7.45;100.00;101942.03;6131962;23;20037;-71
2023/02/20 11:00:57;;;;;;;5.93;5.13;;;;;;;7.65;100.00;101928.59;6110760;23;20190;-71
2023/02/20 11:03:36;;;;;;;10.68;6.22;;;;;;;6.64;100.00;101744.31;6104221;23;20070;-73
2023/02/20 11:06:06;;;;;;;6.07;5.43;;;;;;;7.42;100.00;101875.06;6124260;23;20024;-73
2023/02/20 11:08:32;;;;;;;5.97;5.47;;;;;;;7.50;100.00;101872.28;6130211;23;20511;-72
2023/02/20 11:11:22;;;;;;;21.63;5.88;;;;;;;7.52;100.00;101907.94;6097366;23;20460;-73
2023/02/20 11:13:49;;;;;;;5.95;5.45;;;;;;;7.64;100.00;101913.78;6098652;23;20018;-73
2023/02/20 11:16:30;;;;;;;6.22;5.68;;;;;;;7.77;100.00;101923.09;6100214;23;20236;-73
2023/02/20 11:19:05;;;;;;;7.20;6.50;;;;;;;7.01;100.00;101795.78;6097164;23;20023;-75
2023/02/20 11:21:33;;;;;;;5.05;4.78;;;;;;;6.35;100.00;101683.16;6094934;23;20229;-71
2023/02/20 11:24:24;;;;;;;14.07;5.82;;;;;;;7.49;100.00;101892.31;6106327;23;20347;-73
2023/02/20 11:26:55;;;;;;;7.53;5.18;;;;;;;7.81;100.00;101919.53;6130259;23;20029;-73
2023/02/20 11:29:23;;;;;;;13.50;7.22;;;;;;;7.88;100.00;101922.91;6130955;23;20040;-73
2023/02/20 11:31:49;;;;;;;6.95;6.40;;;;;;;6.53;100.00;101676.69;6105258;23;20034;-72
2023/02/20 11:34:21;;;;;;;6.40;5.90;;;;;;;7.69;100.00;101857.94;6103712;23;20503;-73
2023/02/20 11:36:52;;;;;;;6.07;5.57;;;;;;;7.69;100.00;101878.84;6127418;23;20029;-72
2023/02/20 11:39:29;;;;;;;6.18;5.68;;;;;;;7.60;100.00;101855.53;6130929;23;20081;-71
2023/02/20 11:42:19;;;;;;;6.18;5.50;;;;;;;7.93;100.00;101887.03;6133075;23;20061;-71
2023/02/20 11:45:10;;;;;;;6.43;5.88;;;;;;;7.72;100.00;101875.31;6106275;23;20027;-73
2023/02/20 11:47:37;;;;;;;6.53;5.95;;;;;;;7.31;100.00;101791.69;6107760;23;20053;-72
2023/02/20 11:50:13;;;;;;;6.05;5.45;;;;;;;7.59;100.00;101838.97;6080908;23;20042;-72
2023/02/20 11:52:55;;;;;;;6.03;5.35;;;;;;;7.71;100.00;101848.31;6111379;23;20021;-72
2023/02/20 11:55:24;;;;;;;15.90;8.02;;;;;;;7.35;100.00;101816.84;6110860;23;20034;-72
2023/02/20 11:57:53;;;;;;;8.82;5.70;;;;;;;7.53;100.00;101857.41;6123845;23;20170;-72